sensor_id;sensor_type;location;lat;lon;timestamp;P1;durP1;ratioP1;P2;durP2;ratioP2
59062;SDS011;44851;45.648;9.004;2023-05-19T00:01:57;6.07;;;5.47;;
59062;SDS011;44851;45.648;9.004;2023-05-19T00:04:29;6.40;;;5.90;;
59062;SDS011;44851;45.648;9.004;2023-05-19T00:06:55;7.10;;;6.47;;
59062;SDS011;44851;45.648;9.004;2023-05-19T00:09:23;5.80;;;5.30;;
59062;SDS011;44851;45.648;9.004;2023-05-19T00:11:49;6.83;;;6.23;;
59062;SDS011;44851;45.648;9.004;2023-05-19T00:14:15;7.17;;;6.47;;
59062;SDS011;44851;45.648;9.004;2023-05-19T00:16:41;7.97;;;6.37;;
59062;SDS011;44851;45.648;9.004;2023-05-19T00:19:07;8.37;;;7.13;;
59062;SDS011;44851;45.648;9.004;2023-05-19T00:21:36;8.00;;;7.30;;
59062;SDS011;44851;45.648;9.004;2023-05-19T00:24:05;7.90;;;7.17;;
59062;SDS011;44851;45.648;9.004;2023-05-19T00:26:30;9.97;;;7.47;;
59062;SDS011;44851;45.648;9.004;2023-05-19T00:28:56;8.23;;;7.43;;
59062;SDS011;44851;45.648;9.004;2023-05-19T00:31:22;8.73;;;7.87;;
59062;SDS011;44851;45.648;9.004;2023-05-19T00:33:47;8.67;;;7.73;;
59062;SDS011;44851;45.648;9.004;2023-05-19T00:36:13;8.70;;;7.90;;
59062;SDS011;44851;45.648;9.004;2023-05-19T00:38:38;7.77;;;6.97;;
59062;SDS011;44851;45.648;9.004;2023-05-19T00:41:04;8.13;;;7.33;;
59062;SDS011;44851;45.648;9.004;2023-05-19T00:43:31;7.93;;;7.23;;
59062;SDS011;44851;45.648;9.004;2023-05-19T00:46:00;8.13;;;7.43;;
59062;SDS011;44851;45.648;9.004;2023-05-19T00:48:25;8.87;;;8.00;;
59062;SDS011;44851;45.648;9.004;2023-05-19T00:50:55;8.37;;;7.60;;
59062;SDS011;44851;45.648;9.004;2023-05-19T00:53:25;9.17;;;8.23;;
59062;SDS011;44851;45.648;9.004;2023-05-19T00:55:51;8.40;;;7.70;;
59062;SDS011;44851;45.648;9.004;2023-05-19T00:58:17;8.70;;;7.90;;
59062;SDS011;44851;45.648;9.004;2023-05-19T01:00:43;8.80;;;7.97;;
59062;SDS011;44851;45.648;9.004;2023-05-19T01:03:09;8.97;;;7.63;;
59062;SDS011;44851;45.648;9.004;2023-05-19T01:05:44;8.27;;;7.47;;
59062;SDS011;44851;45.648;9.004;2023-05-19T01:08:10;8.50;;;7.60;;
59062;SDS011;44851;45.648;9.004;2023-05-19T01:10:35;8.70;;;7.93;;
59062;SDS011;44851;45.648;9.004;2023-05-19T01:13:02;9.30;;;8.00;;
59062;SDS011;44851;45.648;9.004;2023-05-19T01:15:28;8.67;;;7.87;;
59062;SDS011;44851;45.648;9.004;2023-05-19T01:20:37;8.90;;;7.97;;
59062;SDS011;44851;45.648;9.004;2023-05-19T01:31:14;9.30;;;8.50;;
59062;SDS011;44851;45.648;9.004;2023-05-19T01:33:45;9.73;;;8.83;;
59062;SDS011;44851;45.648;9.004;2023-05-19T01:36:12;10.57;;;9.13;;
59062;SDS011;44851;45.648;9.004;2023-05-19T01:38:39;10.37;;;9.37;;
59062;SDS011;44851;45.648;9.004;2023-05-19T01:41:06;9.17;;;8.37;;
59062;SDS011;44851;45.648;9.004;2023-05-19T01:43:33;9.43;;;8.43;;
59062;SDS011;44851;45.648;9.004;2023-05-19T01:46:00;9.77;;;8.93;;
59062;SDS011;44851;45.648;9.004;2023-05-19T01:48:26;9.30;;;8.50;;
59062;SDS011;44851;45.648;9.004;2023-05-19T01:50:52;9.13;;;8.33;;
59062;SDS011;44851;45.648;9.004;2023-05-19T01:53:21;9.60;;;8.80;;
59062;SDS011;44851;45.648;9.004;2023-05-19T01:55:48;9.03;;;8.23;;
59062;SDS011;44851;45.648;9.004;2023-05-19T02:06:40;10.43;;;9.10;;
59062;SDS011;44851;45.648;9.004;2023-05-19T02:12:08;9.20;;;8.40;;
59062;SDS011;44851;45.648;9.004;2023-05-19T02:14:49;9.80;;;8.93;;
59062;SDS011;44851;45.648;9.004;2023-05-19T02:17:19;9.83;;;8.83;;
59062;SDS011;44851;45.648;9.004;2023-05-19T02:19:47;9.43;;;8.63;;
59062;SDS011;44851;45.648;9.004;2023-05-19T02:22:12;9.90;;;9.10;;
59062;SDS011;44851;45.648;9.004;2023-05-19T02:24:38;11.17;;;9.93;;
59062;SDS011;44851;45.648;9.004;2023-05-19T02:27:05;11.20;;;10.20;;
59062;SDS011;44851;45.648;9.004;2023-05-19T02:29:30;10.50;;;9.50;;
59062;SDS011;44851;45.648;9.004;2023-05-19T02:31:57;9.93;;;9.00;;
59062;SDS011;44851;45.648;9.004;2023-05-19T02:34:22;10.33;;;9.43;;
59062;SDS011;44851;45.648;9.004;2023-05-19T02:36:48;9.80;;;8.90;;
59062;SDS011;44851;45.648;9.004;2023-05-19T02:39:14;9.83;;;8.93;;
59062;SDS011;44851;45.648;9.004;2023-05-19T02:41:39;10.57;;;9.67;;
59062;SDS011;44851;45.648;9.004;2023-05-19T02:44:05;10.60;;;9.63;;
59062;SDS011;44851;45.648;9.004;2023-05-19T02:46:31;10.73;;;9.70;;
59062;SDS011;44851;45.648;9.004;2023-05-19T02:48:57;10.40;;;9.50;;
59062;SDS011;44851;45.648;9.004;2023-05-19T02:51:22;10.87;;;9.93;;
59062;SDS011;44851;45.648;9.004;2023-05-19T02:53:48;11.60;;;10.60;;
59062;SDS011;44851;45.648;9.004;2023-05-19T02:56:14;11.50;;;10.50;;
59062;SDS011;44851;45.648;9.004;2023-05-19T02:58:39;11.87;;;10.73;;
59062;SDS011;44851;45.648;9.004;2023-05-19T03:01:07;11.33;;;10.33;;
59062;SDS011;44851;45.648;9.004;2023-05-19T03:03:33;12.27;;;11.07;;
59062;SDS011;44851;45.648;9.004;2023-05-19T03:05:58;12.00;;;10.80;;
59062;SDS011;44851;45.648;9.004;2023-05-19T03:08:24;12.10;;;11.10;;
59062;SDS011;44851;45.648;9.004;2023-05-19T03:10:49;13.13;;;12.03;;
59062;SDS011;44851;45.648;9.004;2023-05-19T03:13:14;12.67;;;11.50;;
59062;SDS011;44851;45.648;9.004;2023-05-19T03:15:41;13.30;;;12.10;;
59062;SDS011;44851;45.648;9.004;2023-05-19T03:18:06;13.43;;;12.20;;
59062;SDS011;44851;45.648;9.004;2023-05-19T03:20:32;13.93;;;12.63;;
59062;SDS011;44851;45.648;9.004;2023-05-19T03:22:57;14.10;;;12.80;;
59062;SDS011;44851;45.648;9.004;2023-05-19T03:25:22;13.47;;;12.33;;
59062;SDS011;44851;45.648;9.004;2023-05-19T03:27:48;13.43;;;12.20;;
59062;SDS011;44851;45.648;9.004;2023-05-19T03:30:13;14.30;;;12.93;;
59062;SDS011;44851;45.648;9.004;2023-05-19T03:32:39;14.30;;;12.97;;
59062;SDS011;44851;45.648;9.004;2023-05-19T03:35:05;14.70;;;13.33;;
59062;SDS011;44851;45.648;9.004;2023-05-19T03:37:30;14.80;;;13.40;;
59062;SDS011;44851;45.648;9.004;2023-05-19T03:39:59;14.03;;;12.83;;
59062;SDS011;44851;45.648;9.004;2023-05-19T03:42:24;14.50;;;13.23;;
59062;SDS011;44851;45.648;9.004;2023-05-19T03:44:50;15.73;;;14.23;;
59062;SDS011;44851;45.648;9.004;2023-05-19T03:47:15;14.50;;;13.10;;
59062;SDS011;44851;45.648;9.004;2023-05-19T03:49:41;14.90;;;13.50;;
59062;SDS011;44851;45.648;9.004;2023-05-19T03:52:06;14.80;;;13.43;;
59062;SDS011;44851;45.648;9.004;2023-05-19T03:54:32;15.63;;;14.03;;
59062;SDS011;44851;45.648;9.004;2023-05-19T03:56:57;16.03;;;14.60;;
59062;SDS011;44851;45.648;9.004;2023-05-19T03:59:23;15.77;;;14.23;;
59062;SDS011;44851;45.648;9.004;2023-05-19T04:01:48;14.30;;;12.97;;
59062;SDS011;44851;45.648;9.004;2023-05-19T04:04:15;14.77;;;13.47;;
59062;SDS011;44851;45.648;9.004;2023-05-19T04:06:40;15.07;;;13.77;;
59062;SDS011;44851;45.648;9.004;2023-05-19T04:09:12;15.70;;;14.20;;
59062;SDS011;44851;45.648;9.004;2023-05-19T04:11:39;13.83;;;12.53;;
59062;SDS011;44851;45.648;9.004;2023-05-19T04:14:05;15.37;;;13.87;;
59062;SDS011;44851;45.648;9.004;2023-05-19T04:16:31;15.27;;;13.90;;
59062;SDS011;44851;45.648;9.004;2023-05-19T04:18:57;15.13;;;13.83;;
59062;SDS011;44851;45.648;9.004;2023-05-19T04:21:22;14.63;;;13.33;;
59062;SDS011;44851;45.648;9.004;2023-05-19T04:23:48;15.30;;;13.97;;
59062;SDS011;44851;45.648;9.004;2023-05-19T04:26:13;16.23;;;14.57;;
59062;SDS011;44851;45.648;9.004;2023-05-19T04:28:39;16.53;;;14.93;;
59062;SDS011;44851;45.648;9.004;2023-05-19T04:31:06;16.53;;;15.03;;
59062;SDS011;44851;45.648;9.004;2023-05-19T04:33:34;16.67;;;15.07;;
59062;SDS011;44851;45.648;9.004;2023-05-19T04:36:01;16.60;;;15.10;;
59062;SDS011;44851;45.648;9.004;2023-05-19T04:38:29;15.80;;;14.13;;
59062;SDS011;44851;45.648;9.004;2023-05-19T04:40:55;16.77;;;15.23;;
59062;SDS011;44851;45.648;9.004;2023-05-19T04:43:20;15.57;;;14.10;;
59062;SDS011;44851;45.648;9.004;2023-05-19T04:45:46;16.03;;;14.53;;
59062;SDS011;44851;45.648;9.004;2023-05-19T04:48:14;16.13;;;14.73;;
59062;SDS011;44851;45.648;9.004;2023-05-19T04:50:39;15.00;;;13.70;;
59062;SDS011;44851;45.648;9.004;2023-05-19T04:53:07;17.23;;;15.53;;
59062;SDS011;44851;45.648;9.004;2023-05-19T04:55:33;16.03;;;14.63;;
59062;SDS011;44851;45.648;9.004;2023-05-19T04:57:58;15.80;;;14.40;;
59062;SDS011;44851;45.648;9.004;2023-05-19T05:00:24;16.47;;;14.97;;
59062;SDS011;44851;45.648;9.004;2023-05-19T05:02:49;16.50;;;14.90;;
59062;SDS011;44851;45.648;9.004;2023-05-19T05:05:15;15.50;;;14.10;;
59062;SDS011;44851;45.648;9.004;2023-05-19T05:07:41;17.50;;;15.70;;
59062;SDS011;44851;45.648;9.004;2023-05-19T05:10:07;16.70;;;15.10;;
59062;SDS011;44851;45.648;9.004;2023-05-19T05:12:33;16.83;;;15.23;;
59062;SDS011;44851;45.648;9.004;2023-05-19T05:14:59;16.30;;;14.80;;
59062;SDS011;44851;45.648;9.004;2023-05-19T05:17:25;15.63;;;14.13;;
59062;SDS011;44851;45.648;9.004;2023-05-19T05:19:51;15.67;;;14.17;;
59062;SDS011;44851;45.648;9.004;2023-05-19T05:22:16;15.70;;;14.20;;
59062;SDS011;44851;45.648;9.004;2023-05-19T05:24:42;15.50;;;14.20;;
59062;SDS011;44851;45.648;9.004;2023-05-19T05:27:08;16.37;;;14.87;;
59062;SDS011;44851;45.648;9.004;2023-05-19T05:29:34;16.07;;;14.47;;
59062;SDS011;44851;45.648;9.004;2023-05-19T05:31:59;17.27;;;15.67;;
59062;SDS011;44851;45.648;9.004;2023-05-19T05:34:25;16.60;;;15.00;;
59062;SDS011;44851;45.648;9.004;2023-05-19T05:36:50;17.30;;;15.70;;
59062;SDS011;44851;45.648;9.004;2023-05-19T05:39:16;16.70;;;15.13;;
59062;SDS011;44851;45.648;9.004;2023-05-19T05:41:41;17.03;;;15.43;;
59062;SDS011;44851;45.648;9.004;2023-05-19T05:44:06;17.33;;;15.73;;
59062;SDS011;44851;45.648;9.004;2023-05-19T05:46:32;16.50;;;14.97;;
59062;SDS011;44851;45.648;9.004;2023-05-19T05:48:57;17.60;;;15.90;;
59062;SDS011;44851;45.648;9.004;2023-05-19T05:51:23;17.07;;;15.37;;
59062;SDS011;44851;45.648;9.004;2023-05-19T05:53:50;17.20;;;15.50;;
59062;SDS011;44851;45.648;9.004;2023-05-19T05:56:18;17.13;;;15.43;;
59062;SDS011;44851;45.648;9.004;2023-05-19T05:58:44;17.37;;;15.67;;
59062;SDS011;44851;45.648;9.004;2023-05-19T06:01:09;17.70;;;16.00;;
59062;SDS011;44851;45.648;9.004;2023-05-19T06:03:41;17.43;;;15.67;;
59062;SDS011;44851;45.648;9.004;2023-05-19T06:06:11;32.37;;;29.03;;
59062;SDS011;44851;45.648;9.004;2023-05-19T06:08:37;17.40;;;15.67;;
59062;SDS011;44851;45.648;9.004;2023-05-19T06:11:02;17.33;;;15.63;;
59062;SDS011;44851;45.648;9.004;2023-05-19T06:13:35;16.63;;;15.10;;
59062;SDS011;44851;45.648;9.004;2023-05-19T06:16:02;17.47;;;15.63;;
59062;SDS011;44851;45.648;9.004;2023-05-19T06:18:28;17.80;;;16.10;;
59062;SDS011;44851;45.648;9.004;2023-05-19T06:20:53;16.73;;;15.17;;
59062;SDS011;44851;45.648;9.004;2023-05-19T06:23:19;17.20;;;15.60;;
59062;SDS011;44851;45.648;9.004;2023-05-19T06:25:44;17.30;;;15.63;;
59062;SDS011;44851;45.648;9.004;2023-05-19T06:28:10;17.37;;;15.57;;
59062;SDS011;44851;45.648;9.004;2023-05-19T06:30:35;17.27;;;15.67;;
59062;SDS011;44851;45.648;9.004;2023-05-19T06:33:01;16.47;;;14.77;;
59062;SDS011;44851;45.648;9.004;2023-05-19T06:35:27;16.93;;;15.17;;
59062;SDS011;44851;45.648;9.004;2023-05-19T06:37:54;17.40;;;15.80;;
59062;SDS011;44851;45.648;9.004;2023-05-19T06:40:21;17.57;;;15.90;;
59062;SDS011;44851;45.648;9.004;2023-05-19T06:42:47;17.67;;;15.87;;
59062;SDS011;44851;45.648;9.004;2023-05-19T06:45:12;18.70;;;16.83;;
59062;SDS011;44851;45.648;9.004;2023-05-19T06:47:38;17.97;;;16.27;;
59062;SDS011;44851;45.648;9.004;2023-05-19T06:50:06;17.93;;;16.17;;
59062;SDS011;44851;45.648;9.004;2023-05-19T06:52:32;17.10;;;15.40;;
59062;SDS011;44851;45.648;9.004;2023-05-19T06:54:58;16.97;;;15.47;;
59062;SDS011;44851;45.648;9.004;2023-05-19T06:57:23;16.37;;;14.70;;
59062;SDS011;44851;45.648;9.004;2023-05-19T06:59:49;18.23;;;16.43;;
59062;SDS011;44851;45.648;9.004;2023-05-19T07:02:14;17.53;;;15.50;;
59062;SDS011;44851;45.648;9.004;2023-05-19T07:04:39;17.63;;;16.00;;
59062;SDS011;44851;45.648;9.004;2023-05-19T07:07:05;17.97;;;16.27;;
59062;SDS011;44851;45.648;9.004;2023-05-19T07:09:31;17.83;;;16.03;;
59062;SDS011;44851;45.648;9.004;2023-05-19T07:11:56;18.93;;;17.13;;
59062;SDS011;44851;45.648;9.004;2023-05-19T07:14:22;18.60;;;16.90;;
59062;SDS011;44851;45.648;9.004;2023-05-19T07:16:47;17.23;;;15.60;;
59062;SDS011;44851;45.648;9.004;2023-05-19T07:19:13;17.27;;;15.67;;
59062;SDS011;44851;45.648;9.004;2023-05-19T07:21:38;16.27;;;14.67;;
59062;SDS011;44851;45.648;9.004;2023-05-19T07:24:04;17.50;;;15.73;;
59062;SDS011;44851;45.648;9.004;2023-05-19T07:26:29;17.30;;;15.63;;
59062;SDS011;44851;45.648;9.004;2023-05-19T07:28:55;17.27;;;15.63;;
59062;SDS011;44851;45.648;9.004;2023-05-19T07:31:21;16.77;;;15.07;;
59062;SDS011;44851;45.648;9.004;2023-05-19T07:33:47;17.30;;;15.43;;
59062;SDS011;44851;45.648;9.004;2023-05-19T07:36:12;17.13;;;15.33;;
59062;SDS011;44851;45.648;9.004;2023-05-19T07:38:38;16.63;;;14.93;;
59062;SDS011;44851;45.648;9.004;2023-05-19T07:41:03;15.37;;;13.83;;
59062;SDS011;44851;45.648;9.004;2023-05-19T07:43:29;16.77;;;15.13;;
59062;SDS011;44851;45.648;9.004;2023-05-19T07:45:54;16.00;;;14.40;;
59062;SDS011;44851;45.648;9.004;2023-05-19T07:48:20;15.97;;;14.33;;
59062;SDS011;44851;45.648;9.004;2023-05-19T07:50:47;16.17;;;14.47;;
59062;SDS011;44851;45.648;9.004;2023-05-19T07:53:13;15.33;;;13.77;;
59062;SDS011;44851;45.648;9.004;2023-05-19T07:55:39;16.00;;;14.43;;
59062;SDS011;44851;45.648;9.004;2023-05-19T07:58:05;16.33;;;13.87;;
59062;SDS011;44851;45.648;9.004;2023-05-19T08:00:30;16.23;;;14.53;;
59062;SDS011;44851;45.648;9.004;2023-05-19T08:02:56;16.77;;;14.97;;
59062;SDS011;44851;45.648;9.004;2023-05-19T08:05:21;15.30;;;13.90;;
59062;SDS011;44851;45.648;9.004;2023-05-19T08:07:47;13.77;;;12.47;;
59062;SDS011;44851;45.648;9.004;2023-05-19T08:10:13;14.37;;;12.87;;
59062;SDS011;44851;45.648;9.004;2023-05-19T08:12:38;16.87;;;14.27;;
59062;SDS011;44851;45.648;9.004;2023-05-19T08:15:04;14.40;;;13.00;;
59062;SDS011;44851;45.648;9.004;2023-05-19T08:17:30;14.37;;;12.83;;
59062;SDS011;44851;45.648;9.004;2023-05-19T08:19:56;14.73;;;13.23;;
59062;SDS011;44851;45.648;9.004;2023-05-19T08:22:21;14.17;;;12.67;;
59062;SDS011;44851;45.648;9.004;2023-05-19T08:24:46;14.73;;;13.33;;
59062;SDS011;44851;45.648;9.004;2023-05-19T08:27:14;14.00;;;12.67;;
59062;SDS011;44851;45.648;9.004;2023-05-19T08:29:40;14.17;;;12.77;;
59062;SDS011;44851;45.648;9.004;2023-05-19T08:32:06;13.93;;;12.53;;
59062;SDS011;44851;45.648;9.004;2023-05-19T08:34:32;13.27;;;11.97;;
59062;SDS011;44851;45.648;9.004;2023-05-19T08:36:57;14.43;;;13.07;;
59062;SDS011;44851;45.648;9.004;2023-05-19T08:39:23;13.43;;;12.23;;
59062;SDS011;44851;45.648;9.004;2023-05-19T08:41:53;14.13;;;12.20;;
59062;SDS011;44851;45.648;9.004;2023-05-19T08:44:20;12.80;;;11.50;;
59062;SDS011;44851;45.648;9.004;2023-05-19T08:46:46;14.70;;;13.17;;
59062;SDS011;44851;45.648;9.004;2023-05-19T08:49:12;12.50;;;11.40;;
59062;SDS011;44851;45.648;9.004;2023-05-19T08:54:19;13.47;;;12.10;;
59062;SDS011;44851;45.648;9.004;2023-05-19T08:56:49;12.70;;;11.40;;
59062;SDS011;44851;45.648;9.004;2023-05-19T08:59:15;13.23;;;11.93;;
59062;SDS011;44851;45.648;9.004;2023-05-19T09:01:45;12.67;;;11.47;;
59062;SDS011;44851;45.648;9.004;2023-05-19T09:04:11;12.80;;;11.50;;
59062;SDS011;44851;45.648;9.004;2023-05-19T09:06:37;13.37;;;11.97;;
59062;SDS011;44851;45.648;9.004;2023-05-19T09:09:05;16.43;;;13.13;;
59062;SDS011;44851;45.648;9.004;2023-05-19T09:11:31;14.07;;;12.67;;
59062;SDS011;44851;45.648;9.004;2023-05-19T09:13:57;18.30;;;13.30;;
59062;SDS011;44851;45.648;9.004;2023-05-19T09:16:23;12.93;;;11.63;;
59062;SDS011;44851;45.648;9.004;2023-05-19T09:18:52;17.20;;;12.07;;
59062;SDS011;44851;45.648;9.004;2023-05-19T09:21:25;13.13;;;11.43;;
59062;SDS011;44851;45.648;9.004;2023-05-19T09:23:51;14.60;;;10.50;;
59062;SDS011;44851;45.648;9.004;2023-05-19T09:26:20;58.17;;;25.17;;
59062;SDS011;44851;45.648;9.004;2023-05-19T09:28:47;36.03;;;17.73;;
59062;SDS011;44851;45.648;9.004;2023-05-19T09:31:13;31.20;;;17.03;;
59062;SDS011;44851;45.648;9.004;2023-05-19T09:33:39;18.03;;;14.63;;
59062;SDS011;44851;45.648;9.004;2023-05-19T09:36:08;14.37;;;12.97;;
59062;SDS011;44851;45.648;9.004;2023-05-19T09:38:35;8.80;;;7.90;;
59062;SDS011;44851;45.648;9.004;2023-05-19T09:41:02;9.47;;;8.47;;
59062;SDS011;44851;45.648;9.004;2023-05-19T09:43:29;9.77;;;8.70;;
59062;SDS011;44851;45.648;9.004;2023-05-19T09:46:04;14.47;;;10.80;;
59062;SDS011;44851;45.648;9.004;2023-05-19T09:48:34;13.37;;;10.83;;
59062;SDS011;44851;45.648;9.004;2023-05-19T09:51:00;12.13;;;10.60;;
59062;SDS011;44851;45.648;9.004;2023-05-19T09:53:28;11.43;;;10.00;;
59062;SDS011;44851;45.648;9.004;2023-05-19T09:55:55;10.87;;;8.87;;
59062;SDS011;44851;45.648;9.004;2023-05-19T09:58:24;10.20;;;9.07;;
59062;SDS011;44851;45.648;9.004;2023-05-19T10:00:50;11.00;;;9.07;;
59062;SDS011;44851;45.648;9.004;2023-05-19T10:03:19;11.13;;;8.90;;
59062;SDS011;44851;45.648;9.004;2023-05-19T10:05:46;10.53;;;8.97;;
59062;SDS011;44851;45.648;9.004;2023-05-19T10:08:12;11.03;;;9.23;;
59062;SDS011;44851;45.648;9.004;2023-05-19T10:10:41;11.50;;;9.43;;
59062;SDS011;44851;45.648;9.004;2023-05-19T10:13:09;11.23;;;9.57;;
59062;SDS011;44851;45.648;9.004;2023-05-19T10:15:36;10.03;;;9.03;;
59062;SDS011;44851;45.648;9.004;2023-05-19T10:18:02;10.63;;;8.47;;
59062;SDS011;44851;45.648;9.004;2023-05-19T10:20:28;10.33;;;8.57;;
59062;SDS011;44851;45.648;9.004;2023-05-19T10:22:55;9.90;;;8.90;;
59062;SDS011;44851;45.648;9.004;2023-05-19T10:25:21;10.37;;;9.27;;
59062;SDS011;44851;45.648;9.004;2023-05-19T10:27:57;10.77;;;9.10;;
59062;SDS011;44851;45.648;9.004;2023-05-19T10:30:38;10.07;;;9.07;;
59062;SDS011;44851;45.648;9.004;2023-05-19T10:33:07;10.50;;;9.40;;
59062;SDS011;44851;45.648;9.004;2023-05-19T10:38:39;10.60;;;9.20;;
59062;SDS011;44851;45.648;9.004;2023-05-19T10:44:08;11.03;;;9.93;;
59062;SDS011;44851;45.648;9.004;2023-05-19T10:46:38;11.13;;;9.67;;
59062;SDS011;44851;45.648;9.004;2023-05-19T10:49:06;11.03;;;9.33;;
59062;SDS011;44851;45.648;9.004;2023-05-19T10:51:32;11.77;;;9.53;;
59062;SDS011;44851;45.648;9.004;2023-05-19T10:54:01;11.23;;;10.03;;
59062;SDS011;44851;45.648;9.004;2023-05-19T10:56:28;10.80;;;9.70;;
59062;SDS011;44851;45.648;9.004;2023-05-19T10:58:56;10.87;;;9.70;;
59062;SDS011;44851;45.648;9.004;2023-05-19T11:01:22;11.10;;;9.97;;
59062;SDS011;44851;45.648;9.004;2023-05-19T11:03:55;10.97;;;9.83;;
59062;SDS011;44851;45.648;9.004;2023-05-19T11:06:29;11.80;;;10.47;;
59062;SDS011;44851;45.648;9.004;2023-05-19T11:08:57;11.40;;;10.20;;
59062;SDS011;44851;45.648;9.004;2023-05-19T11:11:25;13.37;;;11.90;;
59062;SDS011;44851;45.648;9.004;2023-05-19T11:14:06;12.47;;;11.17;;
59062;SDS011;44851;45.648;9.004;2023-05-19T11:16:35;12.20;;;10.73;;
59062;SDS011;44851;45.648;9.004;2023-05-19T11:19:01;12.73;;;10.40;;
59062;SDS011;44851;45.648;9.004;2023-05-19T11:29:51;12.93;;;11.60;;
59062;SDS011;44851;45.648;9.004;2023-05-19T11:32:19;12.90;;;11.50;;
59062;SDS011;44851;45.648;9.004;2023-05-19T11:34:46;12.80;;;11.40;;
59062;SDS011;44851;45.648;9.004;2023-05-19T11:37:13;13.00;;;11.60;;
59062;SDS011;44851;45.648;9.004;2023-05-19T11:39:39;12.83;;;11.63;;
59062;SDS011;44851;45.648;9.004;2023-05-19T11:42:05;13.20;;;11.60;;
59062;SDS011;44851;45.648;9.004;2023-05-19T11:44:32;13.70;;;12.17;;
59062;SDS011;44851;45.648;9.004;2023-05-19T11:46:58;13.63;;;12.13;;
59062;SDS011;44851;45.648;9.004;2023-05-19T11:49:24;14.43;;;13.03;;
59062;SDS011;44851;45.648;9.004;2023-05-19T11:51:51;13.80;;;12.47;;
59062;SDS011;44851;45.648;9.004;2023-05-19T11:54:18;14.73;;;13.20;;
59062;SDS011;44851;45.648;9.004;2023-05-19T11:56:43;14.40;;;12.80;;
59062;SDS011;44851;45.648;9.004;2023-05-19T11:59:08;15.40;;;13.07;;
59062;SDS011;44851;45.648;9.004;2023-05-19T12:01:34;15.60;;;13.57;;
59062;SDS011;44851;45.648;9.004;2023-05-19T12:04:00;15.13;;;13.63;;
59062;SDS011;44851;45.648;9.004;2023-05-19T12:06:32;16.53;;;14.73;;
59062;SDS011;44851;45.648;9.004;2023-05-19T12:08:58;15.43;;;13.83;;
59062;SDS011;44851;45.648;9.004;2023-05-19T12:11:26;16.57;;;14.87;;
59062;SDS011;44851;45.648;9.004;2023-05-19T12:13:54;16.00;;;14.40;;
59062;SDS011;44851;45.648;9.004;2023-05-19T12:16:22;18.20;;;16.27;;
59062;SDS011;44851;45.648;9.004;2023-05-19T12:18:48;20.43;;;15.30;;
59062;SDS011;44851;45.648;9.004;2023-05-19T12:21:13;17.60;;;15.77;;
59062;SDS011;44851;45.648;9.004;2023-05-19T12:23:39;15.40;;;13.90;;
59062;SDS011;44851;45.648;9.004;2023-05-19T12:26:06;18.27;;;16.17;;
59062;SDS011;44851;45.648;9.004;2023-05-19T12:28:32;16.97;;;15.17;;
59062;SDS011;44851;45.648;9.004;2023-05-19T12:30:57;16.63;;;14.93;;
59062;SDS011;44851;45.648;9.004;2023-05-19T12:33:23;16.73;;;15.10;;
59062;SDS011;44851;45.648;9.004;2023-05-19T12:35:49;18.80;;;16.47;;
59062;SDS011;44851;45.648;9.004;2023-05-19T12:38:15;19.47;;;16.70;;
59062;SDS011;44851;45.648;9.004;2023-05-19T12:40:43;17.40;;;15.50;;
59062;SDS011;44851;45.648;9.004;2023-05-19T12:43:17;18.80;;;16.63;;
59062;SDS011;44851;45.648;9.004;2023-05-19T12:45:47;17.17;;;15.33;;
59062;SDS011;44851;45.648;9.004;2023-05-19T12:48:13;16.83;;;15.13;;
59062;SDS011;44851;45.648;9.004;2023-05-19T12:50:40;19.17;;;17.07;;
59062;SDS011;44851;45.648;9.004;2023-05-19T12:53:12;18.17;;;16.27;;
59062;SDS011;44851;45.648;9.004;2023-05-19T12:55:42;17.03;;;15.23;;
59062;SDS011;44851;45.648;9.004;2023-05-19T12:58:09;19.37;;;16.57;;
59062;SDS011;44851;45.648;9.004;2023-05-19T13:00:45;17.63;;;15.90;;
59062;SDS011;44851;45.648;9.004;2023-05-19T13:03:17;19.10;;;17.10;;
59062;SDS011;44851;45.648;9.004;2023-05-19T13:05:45;16.47;;;14.87;;
59062;SDS011;44851;45.648;9.004;2023-05-19T13:08:12;17.53;;;15.83;;
59062;SDS011;44851;45.648;9.004;2023-05-19T13:10:39;16.97;;;15.10;;
59062;SDS011;44851;45.648;9.004;2023-05-19T13:13:06;17.50;;;15.73;;
59062;SDS011;44851;45.648;9.004;2023-05-19T13:15:32;18.90;;;16.93;;
59062;SDS011;44851;45.648;9.004;2023-05-19T13:18:00;17.83;;;16.13;;
59062;SDS011;44851;45.648;9.004;2023-05-19T13:20:27;18.87;;;16.93;;
59062;SDS011;44851;45.648;9.004;2023-05-19T13:22:52;18.60;;;16.70;;
59062;SDS011;44851;45.648;9.004;2023-05-19T13:25:18;19.53;;;17.43;;
59062;SDS011;44851;45.648;9.004;2023-05-19T13:27:44;18.37;;;16.40;;
59062;SDS011;44851;45.648;9.004;2023-05-19T13:30:10;19.23;;;16.90;;
59062;SDS011;44851;45.648;9.004;2023-05-19T13:32:36;20.70;;;17.47;;
59062;SDS011;44851;45.648;9.004;2023-05-19T13:35:01;21.47;;;17.53;;
59062;SDS011;44851;45.648;9.004;2023-05-19T13:37:27;19.57;;;17.63;;
59062;SDS011;44851;45.648;9.004;2023-05-19T13:39:53;20.30;;;18.20;;
59062;SDS011;44851;45.648;9.004;2023-05-19T13:42:18;19.73;;;17.73;;
59062;SDS011;44851;45.648;9.004;2023-05-19T13:44:44;19.27;;;17.37;;
59062;SDS011;44851;45.648;9.004;2023-05-19T13:47:10;21.40;;;19.03;;
59062;SDS011;44851;45.648;9.004;2023-05-19T13:49:35;19.70;;;17.37;;
59062;SDS011;44851;45.648;9.004;2023-05-19T13:52:01;19.23;;;17.23;;
59062;SDS011;44851;45.648;9.004;2023-05-19T13:54:26;22.10;;;18.47;;
59062;SDS011;44851;45.648;9.004;2023-05-19T13:56:52;20.07;;;18.10;;
59062;SDS011;44851;45.648;9.004;2023-05-19T13:59:17;20.90;;;18.70;;
59062;SDS011;44851;45.648;9.004;2023-05-19T14:01:43;21.07;;;18.80;;
59062;SDS011;44851;45.648;9.004;2023-05-19T14:04:09;20.57;;;18.00;;
59062;SDS011;44851;45.648;9.004;2023-05-19T14:06:34;21.87;;;19.63;;
59062;SDS011;44851;45.648;9.004;2023-05-19T14:09:02;20.93;;;18.83;;
59062;SDS011;44851;45.648;9.004;2023-05-19T14:11:28;20.77;;;18.50;;
59062;SDS011;44851;45.648;9.004;2023-05-19T14:13:53;21.93;;;18.17;;
59062;SDS011;44851;45.648;9.004;2023-05-19T14:16:19;19.97;;;17.87;;
59062;SDS011;44851;45.648;9.004;2023-05-19T14:18:46;18.77;;;16.77;;
59062;SDS011;44851;45.648;9.004;2023-05-19T14:21:11;19.60;;;17.60;;
59062;SDS011;44851;45.648;9.004;2023-05-19T14:23:38;19.40;;;17.27;;
59062;SDS011;44851;45.648;9.004;2023-05-19T14:26:03;20.43;;;18.23;;
59062;SDS011;44851;45.648;9.004;2023-05-19T14:28:29;19.90;;;17.90;;
59062;SDS011;44851;45.648;9.004;2023-05-19T14:30:54;20.90;;;18.80;;
59062;SDS011;44851;45.648;9.004;2023-05-19T14:33:20;21.57;;;18.47;;
59062;SDS011;44851;45.648;9.004;2023-05-19T14:35:45;20.47;;;18.27;;
59062;SDS011;44851;45.648;9.004;2023-05-19T14:38:11;19.23;;;17.30;;
59062;SDS011;44851;45.648;9.004;2023-05-19T14:40:37;21.30;;;19.10;;
59062;SDS011;44851;45.648;9.004;2023-05-19T14:43:05;21.13;;;18.83;;
59062;SDS011;44851;45.648;9.004;2023-05-19T14:45:31;19.60;;;17.50;;
59062;SDS011;44851;45.648;9.004;2023-05-19T14:47:56;18.80;;;16.93;;
59062;SDS011;44851;45.648;9.004;2023-05-19T14:50:22;19.40;;;17.50;;
59062;SDS011;44851;45.648;9.004;2023-05-19T14:52:47;17.67;;;15.87;;
59062;SDS011;44851;45.648;9.004;2023-05-19T14:55:13;19.13;;;16.87;;
59062;SDS011;44851;45.648;9.004;2023-05-19T14:57:38;17.80;;;15.47;;
59062;SDS011;44851;45.648;9.004;2023-05-19T15:00:04;18.03;;;15.10;;
59062;SDS011;44851;45.648;9.004;2023-05-19T15:02:30;18.10;;;16.20;;